createdAt,value
2023-05-17T00:03:07.036Z,0.00
2023-05-17T00:08:06.934Z,0.00
2023-05-17T00:13:06.884Z,0.00
2023-05-17T00:18:06.998Z,0.00
2023-05-17T00:23:06.756Z,0.00
2023-05-17T00:28:06.670Z,0.00
2023-05-17T00:33:06.643Z,0.00
2023-05-17T00:38:06.550Z,0.00
2023-05-17T00:43:06.483Z,0.00
2023-05-17T00:48:06.457Z,0.00
2023-05-17T00:53:06.364Z,0.00
2023-05-17T00:58:06.293Z,0.00
2023-05-17T01:03:06.297Z,0.00
2023-05-17T01:08:06.159Z,0.00
2023-05-17T01:13:06.100Z,0.00
2023-05-17T01:18:06.149Z,0.00
2023-05-17T01:23:05.977Z,0.00
2023-05-17T01:28:05.894Z,0.00
2023-05-17T01:33:06.030Z,0.00
2023-05-17T01:38:05.758Z,0.00
2023-05-17T01:43:05.709Z,0.00
2023-05-17T01:48:05.755Z,0.00
2023-05-17T01:53:05.579Z,0.00
2023-05-17T01:58:05.515Z,0.00
2023-05-17T02:03:05.500Z,0.00
2023-05-17T02:08:05.371Z,0.00
2023-05-17T02:13:05.316Z,0.00
2023-05-17T02:18:05.311Z,0.00
2023-05-17T02:23:05.177Z,0.00
2023-05-17T02:28:05.112Z,0.00
2023-05-17T02:33:05.136Z,0.00
2023-05-17T02:38:04.978Z,0.00
2023-05-17T02:43:04.932Z,0.00
2023-05-17T02:48:04.879Z,0.00
2023-05-17T02:53:04.849Z,0.00
2023-05-17T02:58:04.732Z,0.00
2023-05-17T03:03:04.786Z,0.00
2023-05-17T03:08:04.655Z,0.00
2023-05-17T03:13:04.541Z,5.62
2023-05-17T03:18:04.581Z,11.25
2023-05-17T03:23:04.396Z,16.87
2023-05-17T03:28:04.322Z,22.50
2023-05-17T03:33:04.350Z,33.75
2023-05-17T03:38:04.188Z,45.00
2023-05-17T03:43:04.135Z,56.25
2023-05-17T03:48:04.083Z,78.75
2023-05-17T03:53:03.980Z,118.12
2023-05-17T03:58:03.926Z,135.00
2023-05-17T04:03:03.866Z,163.12
2023-05-17T04:08:03.793Z,208.12
2023-05-17T04:13:03.727Z,213.75
2023-05-17T04:18:03.748Z,253.12
2023-05-17T04:23:03.585Z,315.00
2023-05-17T04:28:03.509Z,281.25
2023-05-17T04:33:03.540Z,421.87
2023-05-17T04:38:03.393Z,298.12
2023-05-17T04:43:03.366Z,343.12
2023-05-17T04:48:03.332Z,388.12
2023-05-17T04:53:03.196Z,697.50
2023-05-17T04:58:03.150Z,438.75
2023-05-17T05:03:03.196Z,472.50
2023-05-17T05:08:03.073Z,984.37
2023-05-17T05:13:02.930Z,1170.00
2023-05-17T05:18:03.005Z,1963.12
2023-05-17T05:23:02.795Z,2272.50
2023-05-17T05:28:02.740Z,2340.00
2023-05-17T05:33:02.874Z,2683.12
2023-05-17T05:38:02.750Z,2778.75
2023-05-17T05:43:02.835Z,3088.12
2023-05-17T05:48:02.564Z,2908.12
2023-05-17T05:53:14.363Z,2756.25
2023-05-17T05:58:03.372Z,1794.37
2023-05-17T06:03:02.316Z,3645.00
2023-05-17T06:08:02.361Z,2835.00
2023-05-17T06:13:02.146Z,2486.25
2023-05-17T06:18:02.204Z,1771.87
2023-05-17T06:23:02.061Z,1721.25
2023-05-17T06:28:01.953Z,1288.12
2023-05-17T06:33:01.948Z,1389.37
2023-05-17T06:38:01.813Z,4651.87
2023-05-17T06:43:01.763Z,2863.12
2023-05-17T06:48:01.818Z,2683.12
2023-05-17T06:53:01.608Z,2581.87
2023-05-17T06:58:01.543Z,2851.87
2023-05-17T07:03:01.697Z,1091.25
2023-05-17T07:08:01.428Z,911.25
2023-05-17T07:13:01.351Z,658.12
2023-05-17T07:18:01.360Z,736.87
2023-05-17T07:23:01.384Z,585.00
2023-05-17T07:28:01.161Z,438.75
2023-05-17T07:33:01.149Z,911.25
2023-05-17T07:38:01.033Z,4477.50
2023-05-17T07:43:01.099Z,826.87
2023-05-17T07:48:01.073Z,2351.25
2023-05-17T07:53:00.831Z,1625.62
2023-05-17T07:58:00.821Z,956.25
2023-05-17T08:03:00.752Z,736.87
2023-05-17T08:08:00.803Z,540.00
2023-05-17T08:13:00.771Z,3172.50
2023-05-17T08:18:03.759Z,900.00
2023-05-17T08:23:00.448Z,472.50
2023-05-17T08:28:00.383Z,810.00
2023-05-17T08:33:00.485Z,1513.12
2023-05-17T08:38:00.247Z,3555.00
2023-05-17T08:43:00.177Z,1119.37
2023-05-17T08:48:00.177Z,331.87
2023-05-17T08:53:00.150Z,275.62
2023-05-17T08:57:59.987Z,388.12
2023-05-17T09:02:59.976Z,585.00
2023-05-17T09:07:59.841Z,1113.75
2023-05-17T09:12:59.784Z,2289.37
2023-05-17T09:17:59.813Z,2486.25
2023-05-17T09:22:59.633Z,798.75
2023-05-17T09:27:59.593Z,821.25
2023-05-17T09:32:59.523Z,1535.62
2023-05-17T09:37:59.453Z,2199.37
2023-05-17T09:42:59.390Z,669.37
2023-05-17T09:47:59.485Z,838.12
2023-05-17T09:52:59.258Z,2103.75
2023-05-17T09:57:59.205Z,3960.00
2023-05-17T10:02:59.180Z,1063.12
2023-05-17T10:07:59.072Z,596.25
2023-05-17T10:12:59.014Z,680.62
2023-05-17T10:17:58.944Z,888.75
2023-05-17T10:22:58.928Z,1181.25
2023-05-17T10:27:58.814Z,1395.00
2023-05-17T10:32:58.895Z,1175.62
2023-05-17T10:37:58.692Z,1130.62
2023-05-17T10:42:58.594Z,2025.00
2023-05-17T10:48:00.935Z,1102.50
2023-05-17T10:52:58.475Z,1119.37
2023-05-17T10:57:58.411Z,1603.12
2023-05-17T11:02:58.379Z,3881.25
2023-05-17T11:07:58.277Z,2345.62
2023-05-17T11:12:58.202Z,928.12
2023-05-17T11:17:58.273Z,1051.87
2023-05-17T11:22:58.068Z,1321.87
2023-05-17T11:27:58.013Z,1625.62
2023-05-17T11:32:58.098Z,1125.00
2023-05-17T11:37:57.888Z,1074.37
2023-05-17T11:42:57.804Z,1085.62
2023-05-17T11:47:57.807Z,826.87
2023-05-17T11:52:57.693Z,1136.25
2023-05-17T11:57:57.619Z,838.12
2023-05-17T12:02:57.573Z,843.75
2023-05-17T12:07:57.484Z,871.87
2023-05-17T12:12:57.444Z,708.75
2023-05-17T12:17:57.510Z,686.25
2023-05-17T12:22:57.316Z,883.12
2023-05-17T12:27:57.227Z,770.62
2023-05-17T12:32:57.262Z,725.62
2023-05-17T12:37:57.101Z,596.25
2023-05-17T12:42:57.022Z,725.62
2023-05-17T12:47:56.992Z,804.37
2023-05-17T12:52:56.922Z,663.75
2023-05-17T12:57:56.826Z,551.25
2023-05-17T13:02:56.841Z,511.87
2023-05-17T13:07:56.689Z,461.25
2023-05-17T13:12:56.633Z,371.25
2023-05-17T13:17:56.653Z,562.50
2023-05-17T13:22:56.510Z,573.75
2023-05-17T13:27:56.432Z,568.12
2023-05-17T13:32:56.570Z,455.62
2023-05-17T13:37:56.302Z,483.75
2023-05-17T13:42:56.250Z,455.62
2023-05-17T13:47:56.246Z,461.25
2023-05-17T13:52:56.135Z,360.00
2023-05-17T13:57:56.036Z,433.12
2023-05-17T14:02:56.100Z,405.00
2023-05-17T14:07:55.900Z,416.25
2023-05-17T14:12:55.847Z,433.12
2023-05-17T14:17:55.924Z,388.12
2023-05-17T14:22:55.724Z,315.00
2023-05-17T14:27:55.640Z,410.62
2023-05-17T14:32:55.626Z,399.37
2023-05-17T14:37:55.523Z,393.75
2023-05-17T14:42:55.456Z,483.75
2023-05-17T14:47:55.510Z,444.37
2023-05-17T14:52:55.318Z,388.12
2023-05-17T14:57:55.261Z,410.62
2023-05-17T15:02:55.248Z,556.87
2023-05-17T15:07:55.122Z,421.87
2023-05-17T15:12:55.061Z,388.12
2023-05-17T15:17:55.021Z,376.87
2023-05-17T15:22:54.961Z,365.62
2023-05-17T15:27:54.857Z,371.25
2023-05-17T15:32:54.939Z,376.87
2023-05-17T15:37:54.738Z,371.25
2023-05-17T15:42:54.695Z,393.75
2023-05-17T15:47:54.616Z,399.37
2023-05-17T15:52:54.555Z,331.87
2023-05-17T15:57:54.476Z,337.50
2023-05-17T16:02:54.433Z,320.62
2023-05-17T16:07:54.365Z,303.75
2023-05-17T16:12:54.273Z,303.75
2023-05-17T16:17:54.345Z,303.75
2023-05-17T16:22:54.144Z,298.12
2023-05-17T16:27:54.092Z,292.50
2023-05-17T16:32:54.046Z,298.12
2023-05-17T16:37:53.950Z,298.12
2023-05-17T16:42:53.901Z,275.62
2023-05-17T16:47:53.852Z,270.00
2023-05-17T16:52:53.762Z,275.62
2023-05-17T16:57:53.689Z,275.62
2023-05-17T17:02:53.709Z,270.00
2023-05-17T17:07:53.555Z,258.75
2023-05-17T17:12:53.488Z,247.50
2023-05-17T17:17:53.441Z,236.25
2023-05-17T17:22:53.349Z,225.00
2023-05-17T17:27:53.453Z,219.37
2023-05-17T17:32:53.345Z,213.75
2023-05-17T17:37:53.163Z,208.12
2023-05-17T17:42:53.090Z,202.50
2023-05-17T17:47:53.070Z,191.25
2023-05-17T17:52:52.959Z,168.75
2023-05-17T17:57:52.872Z,146.25
2023-05-17T18:02:52.957Z,135.00
2023-05-17T18:07:52.744Z,118.12
2023-05-17T18:12:52.678Z,106.87
2023-05-17T18:17:52.836Z,90.00
2023-05-17T18:22:52.557Z,78.75
2023-05-17T18:27:52.472Z,67.50
2023-05-17T18:32:52.524Z,56.25
2023-05-17T18:37:52.361Z,45.00
2023-05-17T18:42:52.301Z,39.37
2023-05-17T18:47:52.225Z,28.12
2023-05-17T18:52:52.156Z,16.87
2023-05-17T18:57:52.064Z,11.25
2023-05-17T19:02:52.083Z,5.62
2023-05-17T19:07:51.934Z,0.00
2023-05-17T19:12:51.890Z,0.00
2023-05-17T19:17:51.928Z,0.00
2023-05-17T19:22:51.765Z,0.00
2023-05-17T19:27:51.705Z,0.00
2023-05-17T19:32:51.711Z,0.00
2023-05-17T19:37:51.560Z,0.00
2023-05-17T19:42:51.515Z,0.00
2023-05-17T19:47:51.448Z,0.00
2023-05-17T19:52:51.371Z,0.00
2023-05-17T19:57:51.293Z,0.00
2023-05-17T20:02:51.381Z,0.00
2023-05-17T20:07:51.156Z,0.00
2023-05-17T20:12:51.109Z,0.00
2023-05-17T20:17:51.076Z,0.00
2023-05-17T20:22:50.972Z,0.00
2023-05-17T20:27:50.898Z,0.00
2023-05-17T20:32:50.857Z,0.00
2023-05-17T20:37:50.769Z,0.00
2023-05-17T20:42:50.699Z,0.00
2023-05-17T20:47:50.686Z,0.00
2023-05-17T20:52:50.579Z,0.00
2023-05-17T20:57:50.491Z,0.00
2023-05-17T21:02:50.597Z,0.00
2023-05-17T21:07:50.374Z,0.00
2023-05-17T21:12:50.344Z,0.00
2023-05-17T21:17:50.314Z,0.00
2023-05-17T21:22:50.184Z,0.00
2023-05-17T21:27:50.110Z,0.00
2023-05-17T21:32:50.109Z,0.00
2023-05-17T21:37:49.979Z,0.00
2023-05-17T21:42:49.931Z,0.00
2023-05-17T21:47:49.935Z,0.00
2023-05-17T21:52:49.775Z,0.00
2023-05-17T21:57:49.697Z,0.00
2023-05-17T22:02:49.723Z,0.00
2023-05-17T22:07:49.576Z,0.00
2023-05-17T22:12:49.525Z,0.00
2023-05-17T22:17:52.860Z,0.00
2023-05-17T22:22:49.380Z,0.00
2023-05-17T22:27:49.324Z,0.00
2023-05-17T22:32:49.263Z,0.00
2023-05-17T22:37:49.184Z,0.00
2023-05-17T22:42:49.125Z,0.00
2023-05-17T22:47:49.080Z,0.00
2023-05-17T22:52:49.017Z,0.00
2023-05-17T22:57:48.934Z,0.00
2023-05-17T23:02:48.977Z,0.00
2023-05-17T23:07:48.803Z,0.00
2023-05-17T23:12:50.227Z,0.00
2023-05-17T23:17:48.695Z,0.00
2023-05-17T23:22:48.625Z,0.00
2023-05-17T23:27:48.530Z,0.00
2023-05-17T23:32:48.521Z,0.00
2023-05-17T23:37:48.410Z,0.00
2023-05-17T23:42:48.373Z,0.00
2023-05-17T23:47:48.341Z,0.00
2023-05-17T23:52:48.216Z,0.00
2023-05-17T23:57:48.149Z,0.00
